Time;durP1;ratioP1;P1;durP2;ratioP2;P2;SDS_P1;SDS_P2;PMS_P1;PMS_P2;Temp;Humidity;BMP_temperature;BMP_pressure;BME280_temperature;BME280_humidity;BME280_pressure;Samples;Min_cycle;Max_cycle;Signal;HPM_P1;HPM_P2
2023/06/14 00:01:05;;;;;;;13.38;7.53;;;;;;;24.23;38.41;100555.97;5072161;28;20045;-69
2023/06/14 00:03:33;;;;;;;11.45;8.18;;;;;;;24.66;38.19;100556.53;5072120;28;20051;-69
2023/06/14 00:06:00;;;;;;;12.73;7.88;;;;;;;24.95;36.97;100545.91;5071765;28;20276;-69
2023/06/14 00:08:28;;;;;;;23.70;8.55;;;;;;;24.95;37.46;100543.09;5071065;28;20047;-70
2023/06/14 00:10:55;;;;;;;13.73;8.63;;;;;;;24.88;38.15;100546.75;5071734;28;20052;-69
2023/06/14 00:13:23;;;;;;;16.30;8.70;;;;;;;24.55;38.89;100549.38;5072539;28;20401;-69
2023/06/14 00:15:54;;;;;;;15.43;9.43;;;;;;;24.69;38.66;100546.47;5072574;28;20059;-70
2023/06/14 00:18:23;;;;;;;12.98;9.05;;;;;;;24.92;38.71;100550.34;5072425;28;20055;-70
2023/06/14 00:20:51;;;;;;;14.48;8.80;;;;;;;24.70;38.88;100545.28;5076927;28;20044;-69
2023/06/14 00:23:19;;;;;;;15.35;8.50;;;;;;;24.86;38.94;100551.19;5091623;28;20083;-70
2023/06/14 00:25:47;;;;;;;12.82;8.90;;;;;;;24.63;38.90;100554.56;5075046;28;20055;-69
2023/06/14 00:28:14;;;;;;;14.10;8.65;;;;;;;24.16;39.61;100561.66;5072419;28;20534;-69
2023/06/14 00:30:46;;;;;;;13.20;8.60;;;;;;;23.71;40.65;100553.34;5071088;28;20049;-69
2023/06/14 00:33:13;;;;;;;;;;;;;;;23.64;41.14;100558.97;5071663;28;20740;-69
2023/06/14 00:35:43;;;;;;;13.48;8.48;;;;;;;23.61;40.89;100551.34;5071403;28;19924;-69
2023/06/14 00:38:10;;;;;;;15.40;9.30;;;;;;;23.83;41.01;100564.16;5071072;28;20574;-63
2023/06/14 00:40:40;;;;;;;14.90;9.43;;;;;;;23.93;41.38;100563.31;5072245;28;20072;-63
2023/06/14 00:43:07;;;;;;;14.35;9.27;;;;;;;24.29;40.74;100559.97;5072313;28;20055;-63
2023/06/14 00:45:36;;;;;;;16.90;9.80;;;;;;;24.04;41.29;100561.31;5071449;28;20051;-62
2023/06/14 00:48:06;;;;;;;17.95;9.75;;;;;;;23.94;41.40;100562.09;5072322;28;20060;-62
2023/06/14 00:50:34;;;;;;;13.88;9.88;;;;;;;23.95;41.43;100560.91;5055052;28;20057;-63
2023/06/14 00:53:01;;;;;;;13.88;9.32;;;;;;;23.58;41.91;100574.66;5071202;28;20067;-63
2023/06/14 00:55:28;;;;;;;13.50;9.00;;;;;;;23.28;42.72;100567.47;5038282;28;20052;-63
2023/06/14 00:57:56;;;;;;;10.27;7.72;;;;;;;23.25;42.21;100570.25;5053752;28;20053;-64
2023/06/14 01:00:28;;;;;;;13.38;8.10;;;;;;;23.09;42.36;100565.03;5063373;28;20053;-63
2023/06/14 01:02:56;;;;;;;10.32;7.68;;;;;;;23.23;42.00;100569.84;5069642;28;20048;-63
2023/06/14 01:05:24;;;;;;;12.93;7.95;;;;;;;23.19;42.53;100572.66;5050041;28;20049;-63
2023/06/14 01:08:10;;;;;;;13.40;8.93;;;;;;;23.65;41.67;100569.81;5059594;28;20048;-68
2023/06/14 01:10:38;;;;;;;13.70;9.30;;;;;;;23.72;42.14;100564.19;5056668;28;20056;-70
2023/06/14 01:13:28;;;;;;;13.18;8.55;;;;;;;23.91;41.71;100566.53;5059065;28;20045;-69
2023/06/14 01:15:56;;;;;;;14.07;8.32;;;;;;;23.25;42.31;100573.88;5057742;28;20047;-68
2023/06/14 01:18:29;;;;;;;13.73;8.23;;;;;;;23.09;42.44;100567.84;5057882;28;20049;-69
2023/06/14 01:20:56;;;;;;;13.25;8.15;;;;;;;22.84;43.45;100571.84;5083571;28;20059;-68
2023/06/14 01:23:32;;;;;;;;;;;;;;;22.88;43.18;100573.44;5096712;28;20055;-68
2023/06/14 01:26:03;;;;;;;11.57;8.02;;;;;;;22.68;43.91;100582.66;5062856;28;19927;-69
2023/06/14 01:28:35;;;;;;;16.88;8.05;;;;;;;22.67;44.20;100581.84;5074041;28;20056;-63
2023/06/14 01:31:04;;;;;;;11.27;7.65;;;;;;;22.77;43.59;100583.84;5065928;28;20591;-63
2023/06/14 01:33:33;;;;;;;13.48;8.18;;;;;;;22.93;43.47;100577.84;5061302;28;20060;-69
2023/06/14 01:36:02;;;;;;;10.32;7.72;;;;;;;22.80;43.69;100577.47;5037383;28;20048;-70
2023/06/14 01:38:30;;;;;;;15.13;8.18;;;;;;;22.26;45.16;100580.50;5064185;28;20401;-63
2023/06/14 01:40:59;;;;;;;13.23;7.53;;;;;;;22.33;45.03;100577.72;5071545;28;20086;-62
2023/06/14 01:43:29;;;;;;;18.13;8.25;;;;;;;22.37;44.77;100572.13;5074915;28;20403;-62
2023/06/14 01:45:57;;;;;;;14.48;7.45;;;;;;;22.34;45.05;100574.50;5074502;28;20074;-69
2023/06/14 01:48:27;;;;;;;13.32;7.20;;;;;;;22.28;44.82;100569.69;5071927;28;20053;-69
2023/06/14 01:50:54;;;;;;;11.95;7.25;;;;;;;22.28;44.90;100567.66;5073637;28;20047;-69
2023/06/14 01:53:22;;;;;;;12.38;7.65;;;;;;;22.30;45.18;100573.69;5074355;28;20055;-68
2023/06/14 01:55:49;;;;;;;11.65;7.68;;;;;;;22.80;44.18;100579.47;5074110;28;20052;-62
2023/06/14 01:58:17;;;;;;;10.52;8.07;;;;;;;23.38;43.33;100571.44;5075145;28;20492;-61
2023/06/14 02:00:45;;;;;;;11.32;8.57;;;;;;;22.94;44.76;100583.09;5073679;28;20057;-62
2023/06/14 02:03:13;;;;;;;13.05;9.50;;;;;;;22.91;44.83;100574.66;5073866;28;20067;-63
2023/06/14 02:05:40;;;;;;;10.63;7.75;;;;;;;22.32;45.46;100579.72;5057192;28;20412;-61
2023/06/14 02:08:07;;;;;;;12.10;8.02;;;;;;;22.05;45.91;100578.41;5074608;28;20049;-63
2023/06/14 02:10:35;;;;;;;13.48;7.22;;;;;;;22.06;46.06;100580.00;5073604;28;20049;-62
2023/06/14 02:13:03;;;;;;;9.75;7.55;;;;;;;22.24;45.63;100578.09;5061452;28;20055;-69
2023/06/14 02:15:33;;;;;;;9.82;7.50;;;;;;;22.29;45.34;100576.91;5054318;28;20037;-71
2023/06/14 02:18:03;;;;;;;10.25;6.97;;;;;;;22.32;45.29;100574.09;5036823;28;20053;-69
2023/06/14 02:20:32;;;;;;;11.07;7.45;;;;;;;22.26;45.23;100577.69;5067610;28;20048;-69
2023/06/14 02:23:00;;;;;;;10.90;7.43;;;;;;;22.05;45.78;100580.41;5076383;28;20052;-69
2023/06/14 02:25:27;;;;;;;12.35;7.47;;;;;;;21.92;46.15;100582.75;5078858;28;20504;-69
2023/06/14 02:27:55;;;;;;;12.27;7.70;;;;;;;21.94;46.02;100583.16;5053168;28;20056;-68
2023/06/14 02:30:24;;;;;;;14.85;7.82;;;;;;;21.81;46.44;100581.88;5054865;28;20064;-69
2023/06/14 02:32:52;;;;;;;11.45;7.00;;;;;;;21.64;47.23;100588.16;5070941;28;20040;-69
2023/06/14 02:35:22;;;;;;;15.18;7.68;;;;;;;21.94;46.51;100585.16;5074731;28;20045;-69
2023/06/14 02:37:53;;;;;;;13.38;7.25;;;;;;;21.98;45.71;100584.00;5056655;28;20048;-69
2023/06/14 02:40:22;;;;;;;15.63;7.47;;;;;;;22.02;45.72;100593.22;5073810;28;20451;-69
2023/06/14 02:42:51;;;;;;;12.10;6.95;;;;;;;21.86;45.74;100587.09;5055777;28;20063;-69
2023/06/14 02:45:18;;;;;;;10.05;7.60;;;;;;;21.73;46.49;100587.81;5073163;28;20503;-68
2023/06/14 02:47:47;;;;;;;10.20;7.70;;;;;;;21.65;46.39;100586.97;5072887;28;20052;-69
2023/06/14 02:50:15;;;;;;;16.38;7.57;;;;;;;21.67;46.59;100584.56;5068375;28;20063;-69
2023/06/14 02:52:44;;;;;;;11.45;7.00;;;;;;;21.79;46.13;100592.69;5051748;28;20060;-70
2023/06/14 02:55:11;;;;;;;11.85;6.90;;;;;;;21.85;45.64;100593.13;5042901;28;20064;-69
2023/06/14 02:57:39;;;;;;;11.77;7.38;;;;;;;21.70;45.67;100586.59;5060654;28;20412;-68
2023/06/14 03:00:13;;;;;;;10.73;7.05;;;;;;;21.64;46.13;100601.34;5069183;28;20052;-69
2023/06/14 03:02:43;;;;;;;12.00;7.80;;;;;;;21.85;45.48;100602.34;5072696;28;20468;-70
2023/06/14 03:05:12;;;;;;;13.07;7.55;;;;;;;21.65;45.61;100603.00;5072901;28;20056;-69
2023/06/14 03:07:40;;;;;;;11.37;6.57;;;;;;;21.72;45.66;100597.44;5072434;28;20047;-69
2023/06/14 03:10:09;;;;;;;12.43;7.10;;;;;;;21.92;45.00;100608.00;5053443;28;20061;-69
2023/06/14 03:12:39;;;;;;;10.13;7.15;;;;;;;21.55;45.96;100604.50;5069812;28;20049;-70
2023/06/14 03:15:09;;;;;;;12.70;7.43;;;;;;;21.39;46.13;100615.22;5055925;28;20052;-69
2023/06/14 03:17:40;;;;;;;12.93;7.22;;;;;;;21.47;45.74;100607.66;5056065;28;20048;-71
2023/06/14 03:20:08;;;;;;;11.27;6.63;;;;;;;21.65;45.42;100611.41;5075913;28;20514;-70
2023/06/14 03:22:37;;;;;;;10.88;7.28;;;;;;;21.60;45.60;100611.78;5088289;28;20059;-70
2023/06/14 03:25:06;;;;;;;11.10;6.65;;;;;;;21.74;45.35;100609.06;5071810;28;20044;-70
2023/06/14 03:27:37;;;;;;;18.13;7.05;;;;;;;21.71;44.95;100626.63;5070242;28;20040;-70
2023/06/14 03:30:06;;;;;;;10.15;7.10;;;;;;;21.61;44.98;100628.19;5064819;28;20049;-69
2023/06/14 03:32:33;;;;;;;35.72;8.75;;;;;;;21.60;45.32;100623.75;5042540;28;20053;-70
2023/06/14 03:35:02;;;;;;;23.70;7.30;;;;;;;21.58;45.53;100637.38;5051382;28;20048;-69
2023/06/14 03:37:29;;;;;;;15.45;7.60;;;;;;;21.66;45.01;100632.63;5037753;28;20075;-69
2023/06/14 03:39:57;;;;;;;12.90;8.02;;;;;;;21.71;45.27;100633.06;5052181;28;20611;-71
2023/06/14 03:42:25;;;;;;;16.30;7.78;;;;;;;21.45;45.77;100636.06;5068756;28;20072;-69
2023/06/14 03:44:53;;;;;;;15.98;7.57;;;;;;;21.45;45.66;100638.06;5067672;28;20056;-70
2023/06/14 03:47:22;;;;;;;12.02;7.72;;;;;;;21.48;45.60;100637.31;5071686;28;20049;-70
2023/06/14 03:49:50;;;;;;;14.57;7.72;;;;;;;21.69;45.42;100638.25;5055640;28;20059;-70
2023/06/14 03:52:18;;;;;;;16.35;7.68;;;;;;;21.86;45.16;100646.00;5072027;28;20087;-70
2023/06/14 03:54:47;;;;;;;13.65;7.53;;;;;;;21.87;44.63;100644.81;5046776;28;20060;-70
2023/06/14 03:57:18;;;;;;;12.00;7.53;;;;;;;21.38;45.66;100655.63;5034206;28;20048;-69
2023/06/14 03:59:49;;;;;;;13.65;7.65;;;;;;;21.51;45.57;100651.34;5071624;28;20044;-70
2023/06/14 04:02:17;;;;;;;12.57;7.50;;;;;;;21.27;45.99;100649.94;5070081;28;20048;-69
2023/06/14 04:04:45;;;;;;;21.65;8.30;;;;;;;21.28;46.28;100645.16;5052652;28;20056;-69
2023/06/14 04:07:12;;;;;;;16.60;7.80;;;;;;;21.37;45.73;100654.03;5053509;28;20051;-69
2023/06/14 04:09:40;;;;;;;12.48;7.35;;;;;;;21.39;45.54;100648.84;5071591;28;20393;-69
2023/06/14 04:12:14;;;;;;;14.23;7.00;;;;;;;21.34;46.26;100656.81;5072473;28;20060;-69
2023/06/14 04:14:42;;;;;;;18.48;7.63;;;;;;;21.26;46.27;100650.31;5072953;28;20048;-69
2023/06/14 04:17:11;;;;;;;12.95;7.43;;;;;;;21.36;46.14;100654.44;5071351;28;20047;-69
2023/06/14 04:19:40;;;;;;;14.93;7.50;;;;;;;21.14;46.79;100654.22;5053836;28;20044;-70
2023/06/14 04:22:08;;;;;;;16.77;8.40;;;;;;;21.43;45.99;100662.91;5051410;28;20052;-70
2023/06/14 04:24:36;;;;;;;16.17;7.57;;;;;;;21.50;45.91;100658.13;5051775;28;20516;-70
2023/06/14 04:27:04;;;;;;;14.30;7.65;;;;;;;21.96;45.19;100659.31;5060076;28;20041;-71
2023/06/14 04:29:32;;;;;;;12.02;7.38;;;;;;;22.04;44.85;100660.94;5067864;28;20063;-70
2023/06/14 04:32:05;;;;;;;12.85;7.38;;;;;;;21.44;45.81;100667.28;5060405;28;20053;-70
2023/06/14 04:34:33;;;;;;;13.73;7.38;;;;;;;21.63;45.17;100670.66;5070798;28;20048;-70
2023/06/14 04:37:03;;;;;;;14.70;7.25;;;;;;;21.41;45.44;100674.47;5053911;28;20049;-70
2023/06/14 04:39:33;;;;;;;11.20;7.28;;;;;;;21.46;45.75;100676.94;5054742;28;20049;-70
2023/06/14 04:42:11;;;;;;;14.70;6.82;;;;;;;21.74;45.07;100679.94;5054439;28;20044;-69
2023/06/14 04:44:43;;;;;;;;;;;;;;;21.85;44.35;100675.25;5072309;28;20052;-72
2023/06/14 04:47:12;;;;;;;16.38;7.38;;;;;;;21.76;44.49;100676.78;5072889;28;19920;-72
2023/06/14 04:49:40;;;;;;;13.75;7.07;;;;;;;22.05;44.29;100676.59;5056010;28;20456;-70
2023/06/14 04:52:10;;;;;;;12.18;8.10;;;;;;;22.23;43.83;100671.88;5057194;28;20053;-70
2023/06/14 04:54:43;;;;;;;13.90;7.45;;;;;;;22.13;43.78;100677.44;5040088;28;20488;-70
2023/06/14 04:57:17;;;;;;;16.55;7.50;;;;;;;21.83;43.80;100674.84;5054273;28;20053;-70
2023/06/14 04:59:47;;;;;;;14.18;7.25;;;;;;;21.96;44.17;100678.13;5067736;28;20044;-70
2023/06/14 05:02:15;;;;;;;13.68;7.32;;;;;;;21.97;44.06;100672.13;5059993;28;20527;-70
2023/06/14 05:04:43;;;;;;;13.75;7.05;;;;;;;22.07;43.99;100674.19;5066460;28;20059;-70
2023/06/14 05:07:11;;;;;;;11.18;7.78;;;;;;;22.19;44.39;100667.44;5039063;28;20049;-70
2023/06/14 05:09:39;;;;;;;14.13;8.43;;;;;;;22.63;45.27;100675.72;5068219;28;20060;-70
2023/06/14 05:12:09;;;;;;;18.10;9.32;;;;;;;22.62;47.16;100676.88;5075546;28;20071;-71
2023/06/14 05:14:37;;;;;;;14.52;9.52;;;;;;;22.27;48.98;100681.13;5076307;28;20044;-70
2023/06/14 05:17:06;;;;;;;17.77;9.02;;;;;;;22.52;48.35;100686.03;5075170;28;20498;-70
2023/06/14 05:19:33;;;;;;;15.73;9.30;;;;;;;22.36;48.80;100683.56;5075511;28;20052;-71
2023/06/14 05:22:02;;;;;;;15.65;8.73;;;;;;;22.40;47.35;100683.59;5095668;28;20048;-70
2023/06/14 05:24:30;;;;;;;19.07;8.97;;;;;;;22.14;47.23;100679.06;5061896;28;20052;-70
2023/06/14 05:26:58;;;;;;;21.27;9.73;;;;;;;22.28;47.68;100679.91;5079305;28;20288;-70
2023/06/14 05:29:27;;;;;;;15.75;8.10;;;;;;;22.37;45.57;100690.00;5055815;28;20049;-69
2023/06/14 05:31:57;;;;;;;16.10;8.40;;;;;;;21.95;45.57;100688.53;5064379;28;20455;-69
2023/06/14 05:34:25;;;;;;;16.40;8.10;;;;;;;21.88;45.60;100691.28;5075577;28;20416;-71
2023/06/14 05:36:53;;;;;;;17.65;8.68;;;;;;;21.91;45.18;100690.53;5073895;28;20052;-69
2023/06/14 05:39:20;;;;;;;15.23;8.07;;;;;;;21.45;46.22;100694.94;5059345;28;20056;-70
2023/06/14 05:41:48;;;;;;;16.45;8.43;;;;;;;21.46;46.27;100701.34;5055716;28;20275;-70
2023/06/14 05:44:17;;;;;;;12.30;7.50;;;;;;;21.57;45.83;100697.44;5062149;28;20056;-70
2023/06/14 05:46:44;;;;;;;12.55;7.28;;;;;;;21.96;45.27;100689.34;5070006;28;20800;-70
2023/06/14 05:49:12;;;;;;;16.05;7.68;;;;;;;22.07;44.22;100698.66;5055093;28;20048;-69
2023/06/14 05:51:39;;;;;;;22.25;7.60;;;;;;;22.18;43.98;100702.31;5055461;28;20053;-69
2023/06/14 05:54:06;;;;;;;15.38;7.95;;;;;;;22.57;44.14;100697.75;5056978;28;20045;-69
2023/06/14 05:56:34;;;;;;;22.38;7.85;;;;;;;22.86;43.32;100695.81;5075090;28;20063;-69
2023/06/14 05:59:02;;;;;;;15.30;8.60;;;;;;;22.70;43.04;100698.97;5059085;28;20166;-68
2023/06/14 06:01:30;;;;;;;14.25;8.43;;;;;;;22.14;43.83;100699.47;5067322;28;20104;-69
2023/06/14 06:03:57;;;;;;;20.85;10.07;;;;;;;21.91;44.61;100695.34;5075247;28;20049;-69
2023/06/14 06:06:26;;;;;;;18.95;9.20;;;;;;;22.01;44.67;100700.19;5063784;28;20052;-70
2023/06/14 06:08:53;;;;;;;16.85;9.05;;;;;;;22.07;44.49;100707.06;5051220;28;20659;-69
2023/06/14 06:11:21;;;;;;;14.05;7.90;;;;;;;21.95;44.22;100707.38;5066458;28;20049;-70
2023/06/14 06:13:48;;;;;;;20.70;8.55;;;;;;;21.86;44.57;100710.50;5068085;28;20055;-69
2023/06/14 06:16:17;;;;;;;19.02;8.23;;;;;;;22.12;43.97;100710.28;5075128;28;20064;-69
2023/06/14 06:18:44;;;;;;;19.38;8.02;;;;;;;22.65;42.96;100709.81;5067097;28;20045;-69
2023/06/14 06:21:12;;;;;;;17.63;7.95;;;;;;;22.17;42.76;100721.16;5067538;28;20056;-69
2023/06/14 06:23:39;;;;;;;15.38;8.27;;;;;;;22.26;42.87;100715.97;5058548;28;20045;-69
2023/06/14 06:26:07;;;;;;;12.88;7.15;;;;;;;22.69;41.72;100713.41;5053704;28;20048;-69
2023/06/14 06:28:34;;;;;;;15.63;8.27;;;;;;;22.88;40.83;100711.09;5042386;28;20075;-71
2023/06/14 06:31:02;;;;;;;16.45;8.13;;;;;;;22.62;40.38;100713.38;5055153;28;20049;-66
2023/06/14 06:33:31;;;;;;;14.93;7.90;;;;;;;22.76;39.94;100713.44;5055838;28;20072;-67
2023/06/14 06:35:58;;;;;;;15.50;7.22;;;;;;;23.05;39.95;100720.75;5057183;28;20056;-68
2023/06/14 06:38:26;;;;;;;16.50;7.53;;;;;;;23.28;39.07;100718.44;5058387;28;20048;-70
2023/06/14 06:40:54;;;;;;;13.63;7.20;;;;;;;23.09;38.19;100724.38;5060975;28;20067;-68
2023/06/14 06:43:21;;;;;;;23.35;7.47;;;;;;;22.94;37.96;100726.38;5057405;28;20715;-70
2023/06/14 06:45:50;;;;;;;14.80;7.53;;;;;;;22.98;38.24;100721.53;5056666;28;20056;-69
2023/06/14 06:48:17;;;;;;;11.98;6.88;;;;;;;23.07;37.42;100723.97;5060716;28;20037;-69
2023/06/14 06:50:45;;;;;;;16.38;7.20;;;;;;;23.04;37.47;100728.41;5057493;28;20059;-70
2023/06/14 06:53:12;;;;;;;14.07;7.90;;;;;;;22.77;37.50;100732.72;5055979;28;20052;-68
2023/06/14 06:55:44;;;;;;;14.32;7.10;;;;;;;22.84;37.97;100732.72;5061278;28;20116;-67
2023/06/14 06:58:12;;;;;;;13.07;7.18;;;;;;;23.13;37.30;100730.84;5056533;28;20044;-68
2023/06/14 07:00:39;;;;;;;16.40;7.40;;;;;;;23.26;36.95;100732.06;5057922;28;20063;-67
2023/06/14 07:03:07;;;;;;;16.60;7.60;;;;;;;23.53;36.39;100729.72;5053097;28;20045;-67
2023/06/14 07:05:34;;;;;;;13.05;7.13;;;;;;;23.59;35.96;100737.34;5045082;28;20676;-67
2023/06/14 07:08:02;;;;;;;11.07;6.82;;;;;;;23.59;35.50;100739.38;5052700;28;20044;-67
2023/06/14 07:10:30;;;;;;;12.75;6.32;;;;;;;23.75;34.71;100743.38;5060553;28;20067;-67
2023/06/14 07:12:58;;;;;;;13.95;7.07;;;;;;;23.85;34.44;100745.38;5055296;28;20396;-67
2023/06/14 07:15:25;;;;;;;9.68;6.60;;;;;;;24.09;34.04;100741.00;5053495;28;20083;-63
2023/06/14 07:17:53;;;;;;;19.65;7.35;;;;;;;24.01;33.66;100745.00;5057931;28;20056;-65
2023/06/14 07:20:21;;;;;;;20.15;7.22;;;;;;;23.94;33.79;100750.59;5057116;28;20053;-65
2023/06/14 07:22:49;;;;;;;13.48;7.20;;;;;;;24.02;33.63;100752.25;5058946;28;20060;-64
2023/06/14 07:25:19;;;;;;;19.27;9.35;;;;;;;24.35;34.51;100752.63;5054787;28;20056;-65
2023/06/14 07:27:47;;;;;;;14.27;7.68;;;;;;;24.46;33.11;100753.38;5055601;28;20040;-65
2023/06/14 07:30:14;;;;;;;18.58;7.15;;;;;;;24.71;33.08;100756.16;5070266;28;20657;-62
2023/06/14 07:32:42;;;;;;;19.45;7.68;;;;;;;24.99;32.85;100752.41;5059868;28;20044;-61
2023/06/14 07:35:09;;;;;;;20.40;6.90;;;;;;;25.34;32.05;100764.31;5057627;28;20053;-61
2023/06/14 07:37:37;;;;;;;13.63;7.25;;;;;;;25.60;31.52;100757.31;5052121;28;20045;-61
2023/06/14 07:40:06;;;;;;;15.27;6.80;;;;;;;25.79;31.21;100759.56;5047421;28;20056;-63
2023/06/14 07:42:35;;;;;;;13.60;7.28;;;;;;;25.46;31.88;100760.22;5059347;28;20049;-62
2023/06/14 07:45:04;;;;;;;20.63;7.15;;;;;;;25.87;31.06;100761.13;5051037;28;20496;-63
2023/06/14 07:47:32;;;;;;;21.45;7.13;;;;;;;26.07;30.89;100773.47;5059325;28;20049;-62
2023/06/14 07:50:00;;;;;;;23.08;7.22;;;;;;;26.12;30.78;100766.56;5060819;28;20059;-62
2023/06/14 07:52:28;;;;;;;13.10;6.80;;;;;;;26.27;31.07;100757.56;5051209;28;20053;-62
2023/06/14 07:54:55;;;;;;;14.73;6.97;;;;;;;26.48;30.30;100765.78;5056424;28;20040;-62
2023/06/14 07:57:23;;;;;;;15.45;7.07;;;;;;;26.67;30.24;100765.19;5053163;28;20056;-63
2023/06/14 07:59:50;;;;;;;18.15;7.43;;;;;;;26.75;29.66;100768.75;5055286;28;20053;-62
2023/06/14 08:02:18;;;;;;;16.75;7.20;;;;;;;26.29;30.41;100768.44;5056867;28;20059;-63
2023/06/14 08:04:48;;;;;;;21.67;6.72;;;;;;;26.66;29.98;100774.06;5057807;28;20056;-64
2023/06/14 08:07:22;;;;;;;20.63;7.28;;;;;;;26.93;29.98;100768.53;5057261;28;20052;-63
2023/06/14 08:09:50;;;;;;;12.55;6.57;;;;;;;26.97;28.81;100758.00;5060507;28;20053;-63
2023/06/14 08:12:17;;;;;;;14.70;6.18;;;;;;;26.83;28.86;100769.47;5060758;28;20052;-62
2023/06/14 08:14:44;;;;;;;12.95;6.28;;;;;;;26.85;29.17;100767.03;5053848;28;20067;-62
2023/06/14 08:17:12;;;;;;;21.88;7.38;;;;;;;26.61;28.94;100769.69;5056747;28;20534;-62
2023/06/14 08:19:39;;;;;;;15.70;6.38;;;;;;;26.69;28.75;100766.81;5049239;28;20128;-62
2023/06/14 08:22:06;;;;;;;13.32;6.05;;;;;;;26.78;27.71;100773.56;5052124;28;20041;-64
2023/06/14 08:24:34;;;;;;;14.40;6.50;;;;;;;27.17;27.15;100767.41;5054439;28;20049;-64
2023/06/14 08:27:01;;;;;;;12.52;5.78;;;;;;;27.10;26.81;100770.34;5058225;28;20051;-62
2023/06/14 08:29:31;;;;;;;15.70;5.78;;;;;;;26.82;26.46;100767.84;5054147;28;20060;-64
2023/06/14 08:31:58;;;;;;;17.10;6.18;;;;;;;27.11;26.82;100772.72;5053204;28;20151;-62
2023/06/14 08:34:26;;;;;;;11.65;5.38;;;;;;;27.16;27.52;100768.66;5054623;28;20056;-62
2023/06/14 08:36:53;;;;;;;16.70;5.70;;;;;;;27.25;26.63;100766.88;5055731;28;20523;-62
2023/06/14 08:39:21;;;;;;;16.08;6.30;;;;;;;27.12;27.01;100771.53;5059661;28;20057;-63
2023/06/14 08:41:50;;;;;;;16.38;5.82;;;;;;;26.76;26.30;100772.38;5054281;28;20056;-63
2023/06/14 08:44:18;;;;;;;13.20;5.68;;;;;;;26.70;25.94;100777.69;5052950;28;20063;-62
2023/06/14 08:46:47;;;;;;;10.30;5.85;;;;;;;26.82;26.55;100779.16;5059290;28;20075;-63
2023/06/14 08:49:16;;;;;;;13.60;6.95;;;;;;;26.83;24.71;100775.94;5057300;28;20075;-62
2023/06/14 08:51:44;;;;;;;11.90;5.43;;;;;;;26.54;25.54;100783.91;5056352;28;20057;-64
2023/06/14 08:54:12;;;;;;;22.02;5.80;;;;;;;26.53;25.49;100785.13;5054163;28;20309;-64
2023/06/14 08:56:41;;;;;;;11.65;5.70;;;;;;;26.87;25.01;100773.06;5040688;28;20052;-63
2023/06/14 08:59:09;;;;;;;15.05;7.25;;;;;;;26.86;24.29;100766.59;5063885;28;20055;-64
2023/06/14 09:01:37;;;;;;;12.00;5.90;;;;;;;27.12;24.81;100777.19;5059553;28;20052;-63
2023/06/14 09:04:07;;;;;;;16.58;5.57;;;;;;;27.30;24.35;100776.97;5052728;28;20057;-63
2023/06/14 09:06:36;;;;;;;12.77;5.20;;;;;;;27.59;24.62;100775.31;5058046;28;20056;-63
2023/06/14 09:09:04;;;;;;;12.82;5.40;;;;;;;27.08;24.66;100773.59;5054866;28;20056;-64
2023/06/14 09:11:31;;;;;;;13.23;5.25;;;;;;;27.33;24.50;100770.44;5050903;28;20718;-64
2023/06/14 09:13:58;;;;;;;16.50;5.10;;;;;;;27.03;23.52;100782.53;5056863;28;20504;-64
2023/06/14 09:16:26;;;;;;;10.38;4.93;;;;;;;26.88;23.86;100777.50;5050466;28;20045;-65
2023/06/14 09:18:53;;;;;;;7.50;4.93;;;;;;;26.98;24.67;100785.03;5054672;28;20048;-64
2023/06/14 09:21:21;;;;;;;12.73;4.85;;;;;;;27.20;24.27;100783.56;5042768;28;20056;-62
2023/06/14 09:23:48;;;;;;;12.25;4.80;;;;;;;27.37;24.34;100776.88;5059057;28;20049;-63
2023/06/14 09:26:19;;;;;;;11.50;5.70;;;;;;;27.40;23.88;100773.19;5055527;28;20049;-63
2023/06/14 09:28:49;;;;;;;13.77;5.72;;;;;;;27.05;24.84;100782.13;5053030;28;20060;-63
2023/06/14 09:31:18;;;;;;;9.75;5.05;;;;;;;27.28;24.85;100785.03;5054358;28;20583;-62
2023/06/14 09:33:50;;;;;;;12.52;5.68;;;;;;;26.70;24.64;100786.19;5024466;28;20049;-64
2023/06/14 09:36:21;;;;;;;12.85;5.35;;;;;;;26.53;24.28;100787.97;5054310;28;20056;-63
2023/06/14 09:38:56;;;;;;;13.98;5.22;;;;;;;26.56;24.55;100787.13;5045717;28;20528;-63
2023/06/14 09:41:35;;;;;;;15.60;5.72;;;;;;;26.56;24.41;100789.13;5048227;28;20089;-63
2023/06/14 09:44:07;;;;;;;10.52;5.22;;;;;;;26.78;24.97;100787.69;5055956;28;20049;-64
2023/06/14 09:46:40;;;;;;;11.05;5.32;;;;;;;26.73;24.36;100785.31;5058212;28;20048;-64
2023/06/14 09:49:08;;;;;;;9.90;4.75;;;;;;;26.73;24.32;100793.81;5059484;28;20041;-64
2023/06/14 09:51:43;;;;;;;9.90;4.97;;;;;;;26.59;24.11;100791.91;5061412;28;20059;-63
2023/06/14 09:54:20;;;;;;;9.48;4.72;;;;;;;26.89;24.27;100793.22;5057731;28;20049;-64
2023/06/14 09:56:51;;;;;;;8.85;5.22;;;;;;;26.90;24.25;100800.50;5059265;28;20603;-64
2023/06/14 09:59:29;;;;;;;13.25;5.05;;;;;;;27.05;24.18;100790.59;5057645;28;20041;-63
2023/06/14 10:01:59;;;;;;;17.88;5.43;;;;;;;27.21;23.89;100802.91;5052747;28;20060;-65
2023/06/14 10:04:30;;;;;;;9.20;4.45;;;;;;;27.17;23.01;100804.97;5048320;28;20512;-64
2023/06/14 10:06:58;;;;;;;46.28;8.98;;;;;;;27.04;23.19;100800.31;5055130;28;20439;-64
2023/06/14 10:09:26;;;;;;;28.73;9.50;;;;;;;27.21;23.41;100799.28;5055304;28;20056;-64
2023/06/14 10:11:55;;;;;;;17.98;6.38;;;;;;;26.66;23.15;100793.84;5062144;28;20044;-64
2023/06/14 10:14:23;;;;;;;16.88;6.82;;;;;;;26.81;23.52;100797.38;5057853;28;20749;-63
2023/06/14 10:16:55;;;;;;;16.13;5.68;;;;;;;26.97;23.56;100794.75;5056348;28;20969;-63
2023/06/14 10:19:35;;;;;;;11.70;5.20;;;;;;;26.97;23.09;100800.41;5056263;28;20595;-65
2023/06/14 10:22:22;;;;;;;11.85;5.50;;;;;;;26.92;23.69;100798.03;5053101;28;20107;-63
2023/06/14 10:24:50;;;;;;;17.65;9.40;;;;;;;26.92;23.42;100807.31;5058610;28;20045;-64
2023/06/14 10:27:23;;;;;;;7.65;5.38;;;;;;;26.79;23.10;100799.81;5056179;28;20063;-64
2023/06/14 10:29:53;;;;;;;12.00;4.97;;;;;;;26.66;23.10;100805.97;5060079;28;20048;-63
2023/06/14 10:32:23;;;;;;;10.73;5.25;;;;;;;26.46;23.20;100787.22;5057870;28;20071;-64
2023/06/14 10:35:01;;;;;;;10.90;5.30;;;;;;;26.62;23.06;100796.72;5055697;28;20044;-63
2023/06/14 10:37:29;;;;;;;8.75;5.40;;;;;;;26.86;23.18;100789.22;5050694;28;20059;-64
2023/06/14 10:39:56;;;;;;;12.73;5.00;;;;;;;26.85;23.22;100798.13;5056304;28;20068;-64
2023/06/14 10:42:28;;;;;;;9.45;4.82;;;;;;;26.85;23.31;100801.75;5057019;28;20055;-64
2023/06/14 10:44:56;;;;;;;10.68;5.15;;;;;;;26.79;23.18;100800.63;5052846;28;20221;-63
2023/06/14 10:47:41;;;;;;;8.00;4.88;;;;;;;26.75;23.63;100802.66;5054344;28;20072;-64
2023/06/14 10:50:10;;;;;;;9.35;5.03;;;;;;;27.01;23.20;100798.31;5041955;28;20722;-62
2023/06/14 10:52:39;;;;;;;7.65;4.57;;;;;;;27.13;23.30;100789.28;5053255;28;20045;-62
2023/06/14 10:55:14;;;;;;;8.02;5.07;;;;;;;27.44;22.64;100777.53;5062170;28;20052;-62
2023/06/14 10:57:46;;;;;;;10.15;6.20;;;;;;;27.42;22.66;100776.38;5054271;28;20071;-63
2023/06/14 11:00:20;;;;;;;11.07;5.03;;;;;;;27.33;23.29;100784.59;5052439;28;20772;-66
2023/06/14 11:03:07;;;;;;;8.75;4.80;;;;;;;27.17;23.85;100792.88;5055930;28;20052;-63
2023/06/14 11:05:54;;;;;;;8.38;5.13;;;;;;;27.53;23.50;100782.69;5051031;28;20045;-62
2023/06/14 11:08:47;;;;;;;11.82;5.20;;;;;;;27.54;23.27;100778.63;5054929;28;20064;-63
2023/06/14 11:11:14;;;;;;;11.25;5.38;;;;;;;27.24;23.40;100773.78;5057012;28;20045;-62
2023/06/14 11:13:44;;;;;;;12.45;5.18;;;;;;;26.90;23.88;100777.88;5054322;28;20059;-62
2023/06/14 11:16:18;;;;;;;8.60;4.68;;;;;;;26.81;23.84;100786.88;5052712;28;20048;-66
2023/06/14 11:18:46;;;;;;;11.80;5.32;;;;;;;26.94;24.04;100776.59;5058698;28;20051;-62
2023/06/14 11:21:21;;;;;;;11.50;5.85;;;;;;;26.99;24.12;100778.16;5054274;28;20041;-63
2023/06/14 11:23:52;;;;;;;9.23;5.20;;;;;;;27.06;24.00;100775.25;5058323;28;20052;-64
2023/06/14 11:26:30;;;;;;;9.48;5.22;;;;;;;27.33;23.92;100773.28;5061239;28;20049;-62
2023/06/14 11:28:59;;;;;;;9.45;5.43;;;;;;;27.29;24.13;100775.31;5064833;28;20548;-62